TRA95T LGSR-EHAM
Flight info
| Callsign | TRA95T |
|---|---|
| Flight time | N/A |
| Altitude | 38000 |
| Route | MADEX UL53 AKORO UL617 MAKED DCT LONTA UL608 DOLEV DCT ABTAN DCT SIMBA DCT EXITI DCT GASKA DCT MAPOX DCT NORKU |
| Aircraft | B738/M-SDE2E3FGHIRWXYZ/LB1 |
Departure
| Time | 2026-05-07 14:05 |
|---|---|
| Airport | Santorini International Airport (LGSR) |
Arrival
| Time | N/A |
|---|---|
| Airport | Amsterdam Airport Schiphol (EHAM) |
| Time | Latitude | Longitude | Altitude | Speed | Heading |
|---|---|---|---|---|---|
| 2026-05-07 13:54 | 36.40267 | 25.47417 | 89 ft | 0 kts | 249° |
| 2026-05-07 13:59 | 36.40271 | 25.47431 | 88 ft | 4 kts | 249° |
| 2026-05-07 13:59 | 36.40277 | 25.47458 | 88 ft | 4 kts | 276° |
| 2026-05-07 13:59 | 36.40267 | 25.47481 | 92 ft | 4 kts | 334° |
| 2026-05-07 13:59 | 36.40252 | 25.47489 | 88 ft | 1 kts | 339° |
| 2026-05-07 14:00 | 36.40250 | 25.47490 | 91 ft | 111 kts | 339° |
| 2026-05-07 14:01 | 36.40258 | 25.47487 | 88 ft | 4 kts | 339° |
| 2026-05-07 14:02 | 36.40308 | 25.47462 | 89 ft | 11 kts | 339° |
| 2026-05-07 14:02 | 36.40380 | 25.47430 | 89 ft | 11 kts | 348° |
| 2026-05-07 14:02 | 36.40433 | 25.47484 | 91 ft | 11 kts | 41° |
| 2026-05-07 14:02 | 36.40508 | 25.47468 | 93 ft | 13 kts | 339° |
| 2026-05-07 14:03 | 36.40612 | 25.47417 | 90 ft | 19 kts | 339° |
| 2026-05-07 14:03 | 36.40746 | 25.47355 | 90 ft | 19 kts | 340° |
| 2026-05-07 14:03 | 36.40819 | 25.47356 | 90 ft | 10 kts | 42° |
| 2026-05-07 14:03 | 36.40850 | 25.47454 | 91 ft | 11 kts | 100° |
| 2026-05-07 14:04 | 36.40748 | 25.47523 | 91 ft | 37 kts | 159° |
| 2026-05-07 14:04 | 36.40268 | 25.47749 | 92 ft | 108 kts | 159° |
| 2026-05-07 14:04 | 36.39370 | 25.48175 | 85 ft | 165 kts | 159° |
| 2026-05-07 14:04 | 36.38268 | 25.48683 | 680 ft | 172 kts | 158° |
| 2026-05-07 14:05 | 36.37206 | 25.49389 | 1341 ft | 182 kts | 145° |
| 2026-05-07 14:05 | 36.36140 | 25.50320 | 2004 ft | 192 kts | 149° |
| 2026-05-07 14:05 | 36.34901 | 25.51170 | 2393 ft | 211 kts | 149° |
| 2026-05-07 14:05 | 36.33949 | 25.52550 | 2855 ft | 219 kts | 108° |
| 2026-05-07 14:06 | 36.33959 | 25.54429 | 3415 ft | 223 kts | 71° |
| 2026-05-07 14:06 | 36.34818 | 25.56016 | 4011 ft | 225 kts | 40° |
| 2026-05-07 14:06 | 36.36238 | 25.56804 | 4614 ft | 227 kts | 5° |
| 2026-05-07 14:06 | 36.37763 | 25.56400 | 5241 ft | 229 kts | 334° |
| 2026-05-07 14:07 | 36.39181 | 25.55495 | 6014 ft | 229 kts | 332° |
| 2026-05-07 14:07 | 36.40598 | 25.54576 | 6800 ft | 230 kts | 332° |
| 2026-05-07 14:07 | 36.42032 | 25.53662 | 7518 ft | 232 kts | 333° |
| 2026-05-07 14:07 | 36.43484 | 25.52759 | 8231 ft | 235 kts | 334° |
| 2026-05-07 14:08 | 36.44961 | 25.51856 | 8935 ft | 238 kts | 334° |
| 2026-05-07 14:08 | 36.46458 | 25.50952 | 9633 ft | 240 kts | 334° |
| 2026-05-07 14:08 | 36.47972 | 25.50048 | 10336 ft | 242 kts | 334° |
| 2026-05-07 14:08 | 36.49477 | 25.49152 | 11032 ft | 243 kts | 334° |
| 2026-05-07 14:09 | 36.51009 | 25.48245 | 11741 ft | 245 kts | 334° |
| 2026-05-07 14:09 | 36.52552 | 25.47334 | 12447 ft | 246 kts | 334° |
| 2026-05-07 14:09 | 36.54109 | 25.46419 | 13141 ft | 249 kts | 334° |
| 2026-05-07 14:09 | 36.55684 | 25.45492 | 13847 ft | 251 kts | 334° |
| 2026-05-07 14:10 | 36.57270 | 25.44559 | 14535 ft | 253 kts | 334° |
| 2026-05-07 14:10 | 36.58869 | 25.43621 | 15224 ft | 256 kts | 334° |
| 2026-05-07 14:10 | 36.60487 | 25.42669 | 15889 ft | 259 kts | 334° |
| 2026-05-07 14:10 | 36.62125 | 25.41706 | 16576 ft | 261 kts | 334° |
| 2026-05-07 14:11 | 36.63776 | 25.40735 | 17232 ft | 263 kts | 334° |
| 2026-05-07 14:11 | 36.65360 | 25.39588 | 17851 ft | 265 kts | 315° |
| 2026-05-07 14:11 | 36.66513 | 25.37801 | 18505 ft | 266 kts | 305° |
| 2026-05-07 14:11 | 36.67579 | 25.35906 | 19107 ft | 269 kts | 304° |
| 2026-05-07 14:12 | 36.68655 | 25.33970 | 19701 ft | 273 kts | 304° |
| 2026-05-07 14:12 | 36.69737 | 25.32018 | 20309 ft | 275 kts | 304° |
| 2026-05-07 14:12 | 36.70816 | 25.30076 | 20914 ft | 277 kts | 304° |
| 2026-05-07 14:12 | 36.71920 | 25.28093 | 21491 ft | 280 kts | 304° |
| 2026-05-07 14:13 | 36.73035 | 25.26094 | 22080 ft | 282 kts | 304° |
| 2026-05-07 14:13 | 36.74159 | 25.24079 | 22627 ft | 284 kts | 304° |
| 2026-05-07 14:13 | 36.75295 | 25.22045 | 23150 ft | 287 kts | 304° |
| 2026-05-07 14:13 | 36.76444 | 25.19987 | 23674 ft | 290 kts | 304° |
| 2026-05-07 14:14 | 36.77600 | 25.17920 | 24201 ft | 291 kts | 304° |
| 2026-05-07 14:14 | 36.78761 | 25.15839 | 24715 ft | 293 kts | 304° |
| 2026-05-07 14:14 | 36.79934 | 25.13736 | 25191 ft | 296 kts | 304° |
| 2026-05-07 14:14 | 36.81112 | 25.11623 | 25688 ft | 297 kts | 304° |
| 2026-05-07 14:15 | 36.82296 | 25.09499 | 26181 ft | 299 kts | 304° |
| 2026-05-07 14:15 | 36.83486 | 25.07362 | 26648 ft | 301 kts | 304° |
| 2026-05-07 14:15 | 36.84683 | 25.05213 | 27096 ft | 302 kts | 304° |
| 2026-05-07 14:15 | 36.85887 | 25.03049 | 27544 ft | 305 kts | 304° |
| 2026-05-07 14:16 | 36.87098 | 25.00872 | 27979 ft | 306 kts | 304° |
| 2026-05-07 14:16 | 36.88312 | 24.98688 | 28443 ft | 306 kts | 304° |
| 2026-05-07 14:16 | 36.89530 | 24.96495 | 28847 ft | 308 kts | 304° |
| 2026-05-07 14:16 | 36.90759 | 24.94280 | 29221 ft | 311 kts | 304° |
| 2026-05-07 14:17 | 36.91998 | 24.92047 | 29571 ft | 314 kts | 304° |
| 2026-05-07 14:17 | 36.93230 | 24.89825 | 29926 ft | 317 kts | 304° |
| 2026-05-07 14:17 | 36.94489 | 24.87552 | 30275 ft | 319 kts | 304° |
| 2026-05-07 14:17 | 36.95758 | 24.85257 | 30618 ft | 321 kts | 304° |
| 2026-05-07 14:18 | 36.97034 | 24.82954 | 30969 ft | 323 kts | 304° |
| 2026-05-07 14:18 | 36.98318 | 24.80634 | 31297 ft | 326 kts | 303° |
| 2026-05-07 14:18 | 36.99610 | 24.78297 | 31633 ft | 328 kts | 304° |
| 2026-05-07 14:18 | 37.00909 | 24.75944 | 31929 ft | 330 kts | 303° |
| 2026-05-07 14:19 | 37.02219 | 24.73569 | 32220 ft | 333 kts | 303° |
| 2026-05-07 14:19 | 37.03542 | 24.71167 | 32520 ft | 335 kts | 304° |
| 2026-05-07 14:19 | 37.04877 | 24.68746 | 32834 ft | 338 kts | 303° |
| 2026-05-07 14:19 | 37.06214 | 24.66319 | 33127 ft | 340 kts | 303° |
| 2026-05-07 14:20 | 37.07557 | 24.63876 | 33395 ft | 342 kts | 303° |
| 2026-05-07 14:20 | 37.08910 | 24.61412 | 33664 ft | 344 kts | 303° |
| 2026-05-07 14:20 | 37.10255 | 24.58964 | 33955 ft | 346 kts | 303° |
| 2026-05-07 14:20 | 37.11619 | 24.56477 | 34232 ft | 347 kts | 303° |
| 2026-05-07 14:21 | 37.12992 | 24.53973 | 34456 ft | 350 kts | 303° |
| 2026-05-07 14:21 | 37.14376 | 24.51449 | 34700 ft | 352 kts | 303° |
| 2026-05-07 14:21 | 37.15765 | 24.48912 | 34966 ft | 354 kts | 303° |
| 2026-05-07 14:21 | 37.17161 | 24.46362 | 35198 ft | 356 kts | 303° |
| 2026-05-07 14:22 | 37.18562 | 24.43802 | 35449 ft | 357 kts | 303° |
| 2026-05-07 14:22 | 37.20045 | 24.41293 | 35647 ft | 361 kts | 314° |
| 2026-05-07 14:22 | 37.22072 | 24.39411 | 35821 ft | 366 kts | 329° |
| 2026-05-07 14:22 | 37.24469 | 24.38269 | 36029 ft | 372 kts | 342° |
| 2026-05-07 14:23 | 37.27003 | 24.37543 | 36247 ft | 375 kts | 344° |
| 2026-05-07 14:23 | 37.29578 | 24.36882 | 36399 ft | 379 kts | 345° |
| 2026-05-07 14:23 | 37.31289 | 24.36449 | 36518 ft | 380 kts | 345° |
| 2026-05-07 14:23 | 37.33892 | 24.35783 | 36735 ft | 381 kts | 344° |
| 2026-05-07 14:24 | 37.37324 | 24.34882 | 37141 ft | 379 kts | 344° |
| 2026-05-07 14:24 | 37.39893 | 24.34193 | 37439 ft | 377 kts | 344° |
| 2026-05-07 14:24 | 37.42468 | 24.33494 | 37561 ft | 381 kts | 343° |
| 2026-05-07 14:25 | 37.46826 | 24.32301 | 37667 ft | 389 kts | 344° |
| 2026-05-07 14:25 | 37.51881 | 24.30917 | 37757 ft | 398 kts | 344° |
| 2026-05-07 14:26 | 37.57341 | 24.29325 | 37836 ft | 405 kts | 340° |
| 2026-05-07 14:26 | 37.62761 | 24.27134 | 37927 ft | 413 kts | 338° |
| 2026-05-07 14:26 | 37.65481 | 24.25974 | 38037 ft | 414 kts | 338° |
| 2026-05-07 14:27 | 37.68220 | 24.24807 | 38110 ft | 416 kts | 338° |
| 2026-05-07 14:27 | 37.73729 | 24.22518 | 38163 ft | 413 kts | 338° |
| 2026-05-07 14:28 | 37.79087 | 24.20193 | 38132 ft | 408 kts | 338° |
| 2026-05-07 14:28 | 37.84521 | 24.18048 | 38134 ft | 410 kts | 338° |
| 2026-05-07 14:29 | 37.89979 | 24.15762 | 38128 ft | 414 kts | 336° |
| 2026-05-07 14:29 | 37.95423 | 24.13437 | 38124 ft | 413 kts | 338° |
| 2026-05-07 14:30 | 38.00958 | 24.11207 | 38119 ft | 421 kts | 339° |
| 2026-05-07 14:30 | 38.06545 | 24.08910 | 38122 ft | 424 kts | 339° |
| 2026-05-07 14:31 | 38.12108 | 24.06607 | 38120 ft | 413 kts | 339° |
| 2026-05-07 14:31 | 38.17532 | 24.04300 | 38122 ft | 411 kts | 336° |
| 2026-05-07 14:32 | 38.22974 | 24.01980 | 38107 ft | 413 kts | 339° |
| 2026-05-07 14:32 | 38.28450 | 23.99716 | 38125 ft | 416 kts | 338° |
| 2026-05-07 14:33 | 38.33982 | 23.97472 | 38121 ft | 416 kts | 337° |
| 2026-05-07 14:33 | 38.39505 | 23.95112 | 38098 ft | 418 kts | 337° |
| 2026-05-07 14:34 | 38.45023 | 23.92738 | 38116 ft | 420 kts | 338° |
| 2026-05-07 14:34 | 38.50590 | 23.90402 | 38104 ft | 421 kts | 338° |
| 2026-05-07 14:35 | 38.56094 | 23.87959 | 38111 ft | 421 kts | 340° |
| 2026-05-07 14:35 | 38.61678 | 23.85749 | 38117 ft | 420 kts | 339° |
| 2026-05-07 14:36 | 38.67184 | 23.83252 | 38117 ft | 420 kts | 337° |
| 2026-05-07 14:36 | 38.72744 | 23.80966 | 38109 ft | 417 kts | 339° |
| 2026-05-07 14:37 | 38.78243 | 23.78657 | 38126 ft | 413 kts | 337° |
| 2026-05-07 14:37 | 38.86470 | 23.75183 | 38097 ft | 415 kts | 339° |
| 2026-05-07 14:38 | 38.91950 | 23.72840 | 38091 ft | 415 kts | 338° |
| 2026-05-07 14:38 | 38.97408 | 23.70495 | 38086 ft | 416 kts | 338° |
| 2026-05-07 14:39 | 39.02921 | 23.68129 | 38088 ft | 418 kts | 339° |
| 2026-05-07 14:39 | 39.08453 | 23.65751 | 38080 ft | 419 kts | 339° |
| 2026-05-07 14:40 | 39.14000 | 23.63367 | 38081 ft | 421 kts | 339° |
| 2026-05-07 14:40 | 39.19576 | 23.60945 | 38071 ft | 423 kts | 337° |
| 2026-05-07 14:41 | 39.25059 | 23.58268 | 38078 ft | 424 kts | 336° |
| 2026-05-07 14:41 | 39.30590 | 23.55573 | 38070 ft | 425 kts | 337° |
| 2026-05-07 14:42 | 39.36137 | 23.52893 | 38074 ft | 426 kts | 337° |
| 2026-05-07 14:42 | 39.41690 | 23.50207 | 38077 ft | 425 kts | 337° |
| 2026-05-07 14:43 | 39.47239 | 23.47515 | 38082 ft | 425 kts | 337° |
| 2026-05-07 14:43 | 39.52753 | 23.44833 | 38090 ft | 425 kts | 337° |
| 2026-05-07 14:44 | 39.58315 | 23.42124 | 38081 ft | 426 kts | 337° |
| 2026-05-07 14:44 | 39.63858 | 23.39422 | 38094 ft | 425 kts | 337° |
| 2026-05-07 14:45 | 39.69365 | 23.36728 | 38094 ft | 425 kts | 337° |
| 2026-05-07 14:45 | 39.74906 | 23.34019 | 38091 ft | 425 kts | 337° |
| 2026-05-07 14:46 | 39.80453 | 23.31328 | 38088 ft | 425 kts | 337° |
| 2026-05-07 14:46 | 39.85994 | 23.28639 | 38101 ft | 424 kts | 337° |
| 2026-05-07 14:47 | 39.91494 | 23.25960 | 38102 ft | 424 kts | 337° |
| 2026-05-07 14:47 | 39.97020 | 23.23248 | 38100 ft | 424 kts | 337° |
| 2026-05-07 14:48 | 40.02548 | 23.20522 | 38108 ft | 424 kts | 337° |
| 2026-05-07 14:48 | 40.08039 | 23.17811 | 38110 ft | 424 kts | 337° |
| 2026-05-07 14:49 | 40.13576 | 23.15076 | 38116 ft | 425 kts | 337° |
| 2026-05-07 14:49 | 40.19125 | 23.12329 | 38123 ft | 426 kts | 337° |
| 2026-05-07 14:50 | 40.24674 | 23.09578 | 38123 ft | 427 kts | 337° |
| 2026-05-07 14:50 | 40.30248 | 23.06806 | 38122 ft | 429 kts | 337° |
| 2026-05-07 14:51 | 40.35810 | 23.04037 | 38135 ft | 430 kts | 337° |
| 2026-05-07 14:51 | 40.41412 | 23.01243 | 38131 ft | 431 kts | 337° |
| 2026-05-07 14:52 | 40.46989 | 22.98338 | 38125 ft | 430 kts | 332° |
| 2026-05-07 14:52 | 40.52288 | 22.94689 | 38123 ft | 429 kts | 329° |
| 2026-05-07 14:53 | 40.57522 | 22.90912 | 38126 ft | 429 kts | 329° |
| 2026-05-07 14:53 | 40.62767 | 22.87178 | 38127 ft | 428 kts | 330° |
| 2026-05-07 14:54 | 40.68021 | 22.83477 | 38130 ft | 427 kts | 330° |
| 2026-05-07 14:54 | 40.73239 | 22.79810 | 38130 ft | 426 kts | 330° |
| 2026-05-07 14:55 | 40.78474 | 22.76124 | 38127 ft | 426 kts | 330° |
| 2026-05-07 14:55 | 40.83702 | 22.72435 | 38129 ft | 426 kts | 330° |
| 2026-05-07 14:56 | 40.88891 | 22.68763 | 38129 ft | 425 kts | 330° |
| 2026-05-07 14:56 | 40.94106 | 22.65070 | 38132 ft | 425 kts | 330° |
| 2026-05-07 14:57 | 40.99326 | 22.61366 | 38126 ft | 426 kts | 330° |
| 2026-05-07 14:57 | 41.04554 | 22.57648 | 38132 ft | 426 kts | 330° |
| 2026-05-07 14:58 | 41.09779 | 22.53927 | 38130 ft | 426 kts | 329° |
| 2026-05-07 14:58 | 41.14840 | 22.49853 | 38130 ft | 424 kts | 320° |
| 2026-05-07 14:59 | 41.19425 | 22.44925 | 38131 ft | 424 kts | 319° |
| 2026-05-07 14:59 | 41.23960 | 22.39964 | 38138 ft | 425 kts | 319° |
| 2026-05-07 15:00 | 41.28553 | 22.34996 | 38125 ft | 426 kts | 319° |
| 2026-05-07 15:00 | 41.33164 | 22.30040 | 38129 ft | 426 kts | 319° |
| 2026-05-07 15:01 | 41.37793 | 22.25070 | 38124 ft | 427 kts | 319° |
| 2026-05-07 15:01 | 41.42395 | 22.20119 | 38119 ft | 428 kts | 319° |
| 2026-05-07 15:02 | 41.47024 | 22.15123 | 38120 ft | 428 kts | 319° |
| 2026-05-07 15:02 | 41.51648 | 22.10128 | 38119 ft | 428 kts | 319° |
| 2026-05-07 15:03 | 41.56276 | 22.05120 | 38117 ft | 428 kts | 319° |
| 2026-05-07 15:03 | 41.60907 | 22.00096 | 38107 ft | 428 kts | 319° |
| 2026-05-07 15:04 | 41.65532 | 21.95069 | 38114 ft | 428 kts | 319° |
| 2026-05-07 15:04 | 41.70121 | 21.90075 | 38111 ft | 427 kts | 319° |
| 2026-05-07 15:05 | 41.74727 | 21.85048 | 38109 ft | 427 kts | 319° |
| 2026-05-07 15:05 | 41.79337 | 21.80013 | 38100 ft | 427 kts | 319° |
| 2026-05-07 15:06 | 41.83928 | 21.74985 | 38100 ft | 426 kts | 319° |
| 2026-05-07 15:06 | 41.88526 | 21.69941 | 38106 ft | 426 kts | 319° |
| 2026-05-07 15:07 | 41.93117 | 21.64893 | 38100 ft | 427 kts | 319° |
| 2026-05-07 15:07 | 41.97709 | 21.59832 | 38104 ft | 426 kts | 319° |
| 2026-05-07 15:08 | 42.02293 | 21.54777 | 38107 ft | 426 kts | 318° |
| 2026-05-07 15:08 | 42.06856 | 21.49732 | 38100 ft | 425 kts | 318° |
| 2026-05-07 15:09 | 42.11423 | 21.44669 | 38097 ft | 425 kts | 318° |
| 2026-05-07 15:09 | 42.15959 | 21.39576 | 38098 ft | 423 kts | 314° |
| 2026-05-07 15:10 | 42.19872 | 21.33689 | 38104 ft | 421 kts | 308° |
| 2026-05-07 15:10 | 42.23588 | 21.27653 | 38098 ft | 421 kts | 308° |
| 2026-05-07 15:11 | 42.27351 | 21.21586 | 38103 ft | 420 kts | 308° |
| 2026-05-07 15:11 | 42.31126 | 21.15555 | 38101 ft | 420 kts | 308° |
| 2026-05-07 15:12 | 42.34899 | 21.09539 | 38103 ft | 419 kts | 308° |
| 2026-05-07 15:12 | 42.38650 | 21.03548 | 38105 ft | 419 kts | 308° |
| 2026-05-07 15:13 | 42.41784 | 20.98533 | 38100 ft | 418 kts | 308° |
| 2026-05-07 15:13 | 42.45541 | 20.92507 | 38102 ft | 418 kts | 308° |
| 2026-05-07 15:14 | 42.49290 | 20.86485 | 38099 ft | 418 kts | 308° |
| 2026-05-07 15:14 | 42.53035 | 20.80454 | 38107 ft | 418 kts | 308° |
| 2026-05-07 15:15 | 42.56781 | 20.74411 | 38105 ft | 419 kts | 308° |
| 2026-05-07 15:15 | 42.60523 | 20.68359 | 38097 ft | 418 kts | 308° |
| 2026-05-07 15:16 | 42.64267 | 20.62294 | 38097 ft | 419 kts | 308° |
| 2026-05-07 15:16 | 42.68006 | 20.56226 | 38096 ft | 419 kts | 308° |
| 2026-05-07 15:17 | 42.71719 | 20.50188 | 38090 ft | 419 kts | 308° |
| 2026-05-07 15:17 | 42.75454 | 20.44098 | 38080 ft | 419 kts | 308° |
| 2026-05-07 15:18 | 42.79186 | 20.38001 | 38082 ft | 418 kts | 308° |
| 2026-05-07 15:18 | 42.82916 | 20.31904 | 38080 ft | 418 kts | 308° |
| 2026-05-07 15:19 | 42.87087 | 20.26350 | 38077 ft | 421 kts | 316° |
| 2026-05-07 15:19 | 42.91501 | 20.21056 | 38073 ft | 422 kts | 316° |
| 2026-05-07 15:20 | 42.95872 | 20.15793 | 38068 ft | 421 kts | 316° |
| 2026-05-07 15:20 | 43.00249 | 20.10453 | 38069 ft | 422 kts | 316° |
| 2026-05-07 15:21 | 43.04615 | 20.05082 | 38066 ft | 422 kts | 315° |
| 2026-05-07 15:21 | 43.08976 | 19.99701 | 38065 ft | 423 kts | 315° |
| 2026-05-07 15:22 | 43.13317 | 19.94333 | 38070 ft | 423 kts | 315° |
| 2026-05-07 15:22 | 43.17695 | 19.88910 | 38060 ft | 424 kts | 315° |
| 2026-05-07 15:23 | 43.22072 | 19.83475 | 38057 ft | 424 kts | 315° |
| 2026-05-07 15:23 | 43.26455 | 19.78022 | 38055 ft | 425 kts | 315° |
| 2026-05-07 15:24 | 43.30843 | 19.72550 | 38060 ft | 426 kts | 315° |
| 2026-05-07 15:24 | 43.35206 | 19.67101 | 38048 ft | 426 kts | 315° |
| 2026-05-07 15:25 | 43.39591 | 19.61613 | 38049 ft | 426 kts | 315° |
| 2026-05-07 15:25 | 43.43966 | 19.56126 | 38053 ft | 425 kts | 315° |
| 2026-05-07 15:26 | 43.48337 | 19.50635 | 38062 ft | 425 kts | 315° |
| 2026-05-07 15:26 | 43.52705 | 19.45135 | 38058 ft | 425 kts | 315° |
| 2026-05-07 15:27 | 43.57104 | 19.39581 | 38196 ft | 431 kts | 315° |
| 2026-05-07 15:27 | 43.59284 | 19.36827 | 38424 ft | 430 kts | 315° |
| 2026-05-07 15:27 | 43.61489 | 19.34039 | 38650 ft | 428 kts | 315° |
| 2026-05-07 15:28 | 43.63685 | 19.31260 | 38837 ft | 428 kts | 315° |
| 2026-05-07 15:28 | 43.65881 | 19.28475 | 39031 ft | 428 kts | 315° |
| 2026-05-07 15:28 | 43.68070 | 19.25697 | 39254 ft | 427 kts | 315° |
| 2026-05-07 15:28 | 43.70258 | 19.22918 | 39455 ft | 427 kts | 315° |
| 2026-05-07 15:29 | 43.72446 | 19.20135 | 39603 ft | 428 kts | 315° |
| 2026-05-07 15:29 | 43.74642 | 19.17337 | 39764 ft | 429 kts | 315° |
| 2026-05-07 15:29 | 43.76838 | 19.14542 | 39919 ft | 428 kts | 315° |
| 2026-05-07 15:29 | 43.79035 | 19.11739 | 40010 ft | 430 kts | 315° |
| 2026-05-07 15:30 | 43.83418 | 19.06135 | 40037 ft | 432 kts | 315° |
| 2026-05-07 15:30 | 43.87825 | 19.00491 | 40032 ft | 430 kts | 315° |
| 2026-05-07 15:31 | 43.92208 | 18.94868 | 40034 ft | 428 kts | 315° |
| 2026-05-07 15:31 | 43.96567 | 18.89263 | 40035 ft | 426 kts | 315° |
| 2026-05-07 15:32 | 44.00914 | 18.83662 | 40034 ft | 425 kts | 315° |
| 2026-05-07 15:32 | 44.05223 | 18.78097 | 40034 ft | 425 kts | 315° |
| 2026-05-07 15:33 | 44.09558 | 18.72488 | 40044 ft | 426 kts | 315° |
| 2026-05-07 15:33 | 44.13901 | 18.66856 | 40047 ft | 427 kts | 315° |
| 2026-05-07 15:34 | 44.18262 | 18.61189 | 40038 ft | 429 kts | 314° |
| 2026-05-07 15:34 | 44.22633 | 18.55498 | 40037 ft | 431 kts | 314° |
| 2026-05-07 15:35 | 44.27018 | 18.49776 | 40034 ft | 432 kts | 314° |
| 2026-05-07 15:35 | 44.31418 | 18.44022 | 40030 ft | 434 kts | 314° |
| 2026-05-07 15:36 | 44.35822 | 18.38250 | 40026 ft | 435 kts | 314° |
| 2026-05-07 15:36 | 44.40195 | 18.32507 | 40027 ft | 434 kts | 314° |
| 2026-05-07 15:37 | 44.44600 | 18.26710 | 40025 ft | 434 kts | 314° |
| 2026-05-07 15:37 | 44.48989 | 18.20920 | 40019 ft | 433 kts | 314° |
| 2026-05-07 15:38 | 44.53364 | 18.15137 | 40016 ft | 432 kts | 314° |
| 2026-05-07 15:38 | 44.57724 | 18.09360 | 40016 ft | 430 kts | 314° |
| 2026-05-07 15:39 | 44.62077 | 18.03581 | 40019 ft | 429 kts | 314° |
| 2026-05-07 15:39 | 44.66386 | 17.97847 | 40013 ft | 428 kts | 314° |
| 2026-05-07 15:40 | 44.70731 | 17.92054 | 40020 ft | 428 kts | 314° |
| 2026-05-07 15:40 | 44.75012 | 17.86333 | 40020 ft | 427 kts | 314° |
| 2026-05-07 15:41 | 44.79328 | 17.80552 | 40019 ft | 427 kts | 314° |
| 2026-05-07 15:41 | 44.83636 | 17.74770 | 40018 ft | 428 kts | 314° |
| 2026-05-07 15:42 | 44.87928 | 17.68997 | 40019 ft | 429 kts | 314° |
| 2026-05-07 15:42 | 44.92248 | 17.63173 | 40021 ft | 430 kts | 314° |
| 2026-05-07 15:43 | 44.96583 | 17.57317 | 40020 ft | 431 kts | 314° |
| 2026-05-07 15:43 | 45.00920 | 17.51444 | 40017 ft | 433 kts | 314° |
| 2026-05-07 15:44 | 45.05268 | 17.45544 | 40019 ft | 434 kts | 313° |
| 2026-05-07 15:44 | 45.09624 | 17.39621 | 40020 ft | 435 kts | 313° |
| 2026-05-07 15:45 | 45.13989 | 17.33671 | 40017 ft | 435 kts | 313° |
| 2026-05-07 15:45 | 45.18354 | 17.27710 | 40021 ft | 436 kts | 313° |
| 2026-05-07 15:46 | 45.24876 | 17.18775 | 40018 ft | 436 kts | 313° |
| 2026-05-07 15:47 | 45.29242 | 17.12778 | 40018 ft | 436 kts | 313° |
| 2026-05-07 15:47 | 45.33605 | 17.06771 | 40019 ft | 436 kts | 313° |
| 2026-05-07 15:48 | 45.37959 | 17.00762 | 40013 ft | 436 kts | 313° |
| 2026-05-07 15:48 | 45.42312 | 16.94742 | 40008 ft | 435 kts | 313° |
| 2026-05-07 15:49 | 45.46618 | 16.88773 | 40009 ft | 435 kts | 313° |
| 2026-05-07 15:49 | 45.50954 | 16.82749 | 40006 ft | 435 kts | 313° |
| 2026-05-07 15:50 | 45.55284 | 16.76720 | 40002 ft | 434 kts | 313° |
| 2026-05-07 15:50 | 45.59603 | 16.70691 | 40001 ft | 434 kts | 313° |
| 2026-05-07 15:51 | 45.63917 | 16.64656 | 40000 ft | 434 kts | 313° |
| 2026-05-07 15:51 | 45.68229 | 16.58611 | 39999 ft | 434 kts | 313° |
| 2026-05-07 15:52 | 45.72541 | 16.52551 | 40000 ft | 434 kts | 313° |
| 2026-05-07 15:52 | 45.76849 | 16.46483 | 39992 ft | 435 kts | 312° |
| 2026-05-07 15:53 | 45.81131 | 16.40442 | 39993 ft | 435 kts | 312° |
| 2026-05-07 15:53 | 45.85447 | 16.34334 | 39993 ft | 436 kts | 312° |
| 2026-05-07 15:54 | 45.89769 | 16.28200 | 39992 ft | 436 kts | 312° |
| 2026-05-07 15:54 | 45.94083 | 16.22067 | 39993 ft | 437 kts | 312° |
| 2026-05-07 15:55 | 45.98381 | 16.15946 | 39994 ft | 438 kts | 312° |
| 2026-05-07 15:55 | 46.02731 | 16.09733 | 39989 ft | 439 kts | 312° |
| 2026-05-07 15:56 | 46.07040 | 16.03566 | 39981 ft | 439 kts | 312° |
| 2026-05-07 15:56 | 46.11402 | 15.97307 | 39970 ft | 440 kts | 312° |
| 2026-05-07 15:57 | 46.15711 | 15.91110 | 39964 ft | 440 kts | 312° |
| 2026-05-07 15:57 | 46.20049 | 15.84858 | 39962 ft | 440 kts | 312° |
| 2026-05-07 15:58 | 46.24373 | 15.78609 | 39957 ft | 440 kts | 312° |
| 2026-05-07 15:58 | 46.28699 | 15.72344 | 39950 ft | 439 kts | 312° |
| 2026-05-07 15:59 | 46.33004 | 15.66095 | 39946 ft | 438 kts | 312° |
| 2026-05-07 15:59 | 46.37279 | 15.59874 | 39946 ft | 438 kts | 312° |
| 2026-05-07 16:00 | 46.41578 | 15.53601 | 39945 ft | 438 kts | 311° |
| 2026-05-07 16:00 | 46.45862 | 15.47336 | 39946 ft | 437 kts | 312° |
| 2026-05-07 16:01 | 46.49425 | 15.42118 | 39936 ft | 437 kts | 311° |
| 2026-05-07 16:01 | 46.54392 | 15.34820 | 39936 ft | 437 kts | 311° |
| 2026-05-07 16:02 | 46.58671 | 15.28519 | 39936 ft | 438 kts | 311° |
| 2026-05-07 16:02 | 46.62232 | 15.23261 | 39937 ft | 439 kts | 311° |
| 2026-05-07 16:03 | 46.66518 | 15.16922 | 39925 ft | 440 kts | 311° |
| 2026-05-07 16:03 | 46.70813 | 15.10554 | 39926 ft | 440 kts | 311° |
| 2026-05-07 16:04 | 46.75104 | 15.04173 | 39929 ft | 441 kts | 311° |
| 2026-05-07 16:04 | 46.79406 | 14.97765 | 39924 ft | 442 kts | 311° |
| 2026-05-07 16:05 | 46.83713 | 14.91336 | 39914 ft | 442 kts | 311° |
| 2026-05-07 16:05 | 46.87985 | 14.84940 | 39936 ft | 442 kts | 311° |
| 2026-05-07 16:06 | 46.92285 | 14.78485 | 39937 ft | 443 kts | 311° |
| 2026-05-07 16:06 | 46.96584 | 14.72016 | 39945 ft | 443 kts | 311° |
| 2026-05-07 16:07 | 47.00896 | 14.65513 | 39946 ft | 444 kts | 311° |
| 2026-05-07 16:07 | 47.05195 | 14.59013 | 39948 ft | 443 kts | 311° |
| 2026-05-07 16:08 | 47.09437 | 14.52538 | 39962 ft | 443 kts | 311° |
| 2026-05-07 16:08 | 47.13882 | 14.46232 | 39981 ft | 445 kts | 315° |
| 2026-05-07 16:09 | 47.18558 | 14.40243 | 39982 ft | 446 kts | 316° |
| 2026-05-07 16:09 | 47.23251 | 14.34262 | 39997 ft | 446 kts | 316° |
| 2026-05-07 16:10 | 47.27927 | 14.28239 | 39990 ft | 447 kts | 316° |
| 2026-05-07 16:10 | 47.32602 | 14.22167 | 39993 ft | 448 kts | 316° |
| 2026-05-07 16:11 | 47.37240 | 14.16122 | 40000 ft | 448 kts | 316° |
| 2026-05-07 16:11 | 47.41918 | 14.10007 | 39996 ft | 448 kts | 316° |
| 2026-05-07 16:12 | 47.46580 | 14.03901 | 40015 ft | 448 kts | 316° |
| 2026-05-07 16:12 | 47.51245 | 13.97777 | 40011 ft | 448 kts | 316° |
| 2026-05-07 16:13 | 47.55909 | 13.91638 | 40008 ft | 448 kts | 316° |
| 2026-05-07 16:13 | 47.60565 | 13.85495 | 40009 ft | 448 kts | 316° |
| 2026-05-07 16:14 | 47.65217 | 13.79341 | 40018 ft | 448 kts | 316° |
| 2026-05-07 16:14 | 47.69845 | 13.73204 | 40023 ft | 448 kts | 316° |
| 2026-05-07 16:15 | 47.74493 | 13.67026 | 40022 ft | 448 kts | 316° |
| 2026-05-07 16:15 | 47.79137 | 13.60837 | 40017 ft | 448 kts | 316° |
| 2026-05-07 16:16 | 47.83773 | 13.54643 | 40017 ft | 448 kts | 315° |
| 2026-05-07 16:16 | 47.88415 | 13.48426 | 40014 ft | 448 kts | 315° |
| 2026-05-07 16:17 | 47.93046 | 13.42207 | 40023 ft | 447 kts | 315° |
| 2026-05-07 16:17 | 47.97662 | 13.35995 | 40016 ft | 447 kts | 315° |
| 2026-05-07 16:18 | 48.02248 | 13.29805 | 40016 ft | 447 kts | 315° |
| 2026-05-07 16:18 | 48.06859 | 13.23567 | 40021 ft | 446 kts | 315° |
| 2026-05-07 16:19 | 48.11467 | 13.17317 | 40019 ft | 447 kts | 315° |
| 2026-05-07 16:19 | 48.16071 | 13.11055 | 40015 ft | 447 kts | 315° |
| 2026-05-07 16:20 | 48.20645 | 13.04821 | 40018 ft | 447 kts | 315° |
| 2026-05-07 16:20 | 48.25330 | 12.98683 | 40019 ft | 448 kts | 319° |
| 2026-05-07 16:21 | 48.30257 | 12.92945 | 40018 ft | 449 kts | 320° |
| 2026-05-07 16:21 | 48.35227 | 12.87246 | 40019 ft | 449 kts | 320° |
| 2026-05-07 16:22 | 48.40173 | 12.81495 | 40020 ft | 449 kts | 320° |
| 2026-05-07 16:22 | 48.45096 | 12.75710 | 40018 ft | 449 kts | 320° |
| 2026-05-07 16:23 | 48.50023 | 12.69892 | 40021 ft | 449 kts | 320° |
| 2026-05-07 16:23 | 48.54940 | 12.64071 | 40016 ft | 449 kts | 320° |
| 2026-05-07 16:24 | 48.59860 | 12.58233 | 40019 ft | 449 kts | 320° |
| 2026-05-07 16:24 | 48.64735 | 12.52433 | 40019 ft | 449 kts | 320° |
| 2026-05-07 16:25 | 48.69647 | 12.46576 | 40029 ft | 449 kts | 320° |
| 2026-05-07 16:25 | 48.74552 | 12.40701 | 40001 ft | 450 kts | 319° |
| 2026-05-07 16:26 | 48.79347 | 12.34589 | 39955 ft | 450 kts | 315° |
| 2026-05-07 16:26 | 48.83789 | 12.27929 | 39989 ft | 448 kts | 311° |
| 2026-05-07 16:27 | 48.87873 | 12.20795 | 39993 ft | 447 kts | 307° |
| 2026-05-07 16:27 | 48.91549 | 12.13177 | 39949 ft | 446 kts | 301° |
| 2026-05-07 16:28 | 48.94694 | 12.05040 | 39940 ft | 445 kts | 295° |
| 2026-05-07 16:28 | 48.97267 | 11.96498 | 39986 ft | 443 kts | 290° |
| 2026-05-07 16:29 | 48.99248 | 11.87683 | 39997 ft | 441 kts | 284° |